Time;durP1;ratioP1;P1;durP2;ratioP2;P2;SDS_P1;SDS_P2;PMS_P1;PMS_P2;Temp;Humidity;BMP_temperature;BMP_pressure;BME280_temperature;BME280_humidity;BME280_pressure;Samples;Min_cycle;Max_cycle;Signal;HPM_P1;HPM_P2
2023/05/25 00:00:27;;;;;;;;;;;;;;;9.37;100.00;102502.94;10544922;28;19925;-63
2023/05/25 00:05:30;;;;;;;;;;;;;;;9.29;100.00;102502.28;10545517;28;20015;-62
2023/05/25 00:10:32;;;;;;;;;;;;;;;9.35;100.00;102502.13;10526996;28;19931;-62
2023/05/25 00:15:34;;;;;;;;;;;;;;;9.35;100.00;102507.38;10543568;28;19930;-63
2023/05/25 00:20:37;;;;;;;;;;;;;;;9.19;100.00;102512.09;10544426;28;20286;-62
2023/05/25 00:25:39;;;;;;;;;;;;;;;9.04;100.00;102512.47;10543568;28;20348;-63
2023/05/25 00:30:42;;;;;;;;;;;;;;;9.07;100.00;102501.94;10544785;28;19928;-63
2023/05/25 00:35:45;;;;;;;;;;;;;;;8.95;100.00;102516.16;10543661;28;19971;-63
2023/05/25 00:40:47;;;;;;;;;;;;;;;9.02;100.00;102514.25;10544350;28;19931;-63
2023/05/25 00:45:53;;;;;;;;;;;;;;;8.85;100.00;102514.66;10543597;28;19928;-63
2023/05/25 00:50:58;;;;;;;;;;;;;;;8.87;100.00;102515.47;10524773;28;19924;-62
2023/05/25 00:56:04;;;;;;;;;;;;;;;8.90;100.00;102515.41;10542703;28;20082;-62
2023/05/25 01:01:10;;;;;;;;;;;;;;;8.76;100.00;102513.13;10524567;28;19924;-63
2023/05/25 01:06:16;;;;;;;;;;;;;;;8.72;100.00;102514.94;10549160;28;19923;-63
2023/05/25 01:11:19;;;;;;;;;;;;;;;8.59;100.00;102516.09;10518121;23;20382;-63
2023/05/25 01:16:21;;;;;;;;;;;;;;;8.48;100.00;102513.69;10495799;28;19924;-62
2023/05/25 01:21:30;;;;;;;;;;;;;;;8.50;100.00;102521.50;10523413;28;19993;-63
2023/05/25 01:26:33;;;;;;;;;;;;;;;8.68;100.00;102528.09;10542557;28;19928;-63
2023/05/25 01:31:35;;;;;;;;;;;;;;;8.47;100.00;102543.31;10541627;28;19938;-62
2023/05/25 01:36:38;;;;;;;;;;;;;;;8.41;100.00;102539.94;10524475;28;19928;-63
2023/05/25 01:41:40;;;;;;;;;;;;;;;8.37;100.00;102539.13;10524024;28;19924;-62
2023/05/25 01:46:42;;;;;;;;;;;;;;;8.39;100.00;102537.38;10522950;28;19932;-63
2023/05/25 01:52:03;;;;;;;;;;;;;;;8.28;100.00;102545.41;10539743;28;19975;-63
2023/05/25 01:57:05;;;;;;;;;;;;;;;8.35;100.00;102551.34;10541451;28;19978;-62
2023/05/25 02:02:08;;;;;;;;;;;;;;;8.19;100.00;102546.44;10522573;28;20022;-63
2023/05/25 02:07:10;;;;;;;;;;;;;;;8.20;100.00;102549.91;10520873;28;19932;-62
2023/05/25 02:12:12;;;;;;;;;;;;;;;8.07;100.00;102544.06;10522190;28;19939;-63
2023/05/25 02:17:16;;;;;;;;;;;;;;;8.21;100.00;102546.41;10538772;28;20367;-63
2023/05/25 02:22:19;;;;;;;;;;;;;;;8.13;100.00;102546.53;10521281;28;20370;-63
2023/05/25 02:27:21;;;;;;;;;;;;;;;7.96;100.00;102543.41;10539930;28;19924;-62
2023/05/25 02:32:24;;;;;;;;;;;;;;;8.05;100.00;102550.19;10539911;28;20378;-63
2023/05/25 02:37:26;;;;;;;;;;;;;;;8.06;100.00;102541.50;10497214;28;20321;-62
2023/05/25 02:42:28;;;;;;;;;;;;;;;8.04;100.00;102546.75;10521610;28;20272;-62
2023/05/25 02:47:30;;;;;;;;;;;;;;;7.98;100.00;102544.22;10538441;28;20275;-63
2023/05/25 02:52:33;;;;;;;;;;;;;;;7.96;100.00;102544.25;10520185;28;19953;-63
2023/05/25 02:57:37;;;;;;;;;;;;;;;7.94;100.00;102550.41;10505336;28;19924;-63
2023/05/25 03:02:39;;;;;;;;;;;;;;;7.91;100.00;102548.69;10537750;28;19928;-62
2023/05/25 03:07:42;;;;;;;;;;;;;;;7.77;100.00;102558.53;10520927;28;19924;-63
2023/05/25 03:12:44;;;;;;;;;;;;;;;7.88;100.00;102569.63;10542306;28;20437;-62
2023/05/25 03:17:46;;;;;;;;;;;;;;;7.84;100.00;102569.72;10528167;28;19946;-62
2023/05/25 03:22:48;;;;;;;;;;;;;;;7.67;100.00;102573.47;10529560;28;19970;-63
2023/05/25 03:27:52;;;;;;;;;;;;;;;7.89;100.00;102581.78;10547395;28;19930;-63
2023/05/25 03:32:54;;;;;;;;;;;;;;;7.86;100.00;102584.44;10508532;28;20384;-63
2023/05/25 03:37:57;;;;;;;;;;;;;;;7.77;100.00;102589.81;10547105;28;19924;-63
2023/05/25 03:42:59;;;;;;;;;;;;;;;7.77;100.00;102598.50;10528988;28;19931;-63
2023/05/25 03:48:01;;;;;;;;;;;;;;;7.77;100.00;102598.50;10545740;28;19932;-62
2023/05/25 03:53:03;;;;;;;;;;;;;;;7.91;100.00;102594.78;10526678;28;20378;-63
2023/05/25 03:58:08;;;;;;;;;;;;;;;7.84;100.00;102598.41;10545538;28;20299;-63
2023/05/25 04:03:11;;;;;;;;;;;;;;;7.95;100.00;102593.84;10544360;28;20003;-63
2023/05/25 04:08:16;;;;;;;;;;;;;;;8.05;100.00;102598.00;10544826;28;19928;-62
2023/05/25 04:13:19;;;;;;;;;;;;;;;7.93;100.00;102591.25;10543672;28;20003;-63
2023/05/25 04:18:21;;;;;;;;;;;;;;;8.16;100.00;102601.28;10545254;28;19924;-62
2023/05/25 04:23:23;;;;;;;;;;;;;;;8.12;100.00;102604.84;10544273;28;19935;-62
2023/05/25 04:28:27;;;;;;;;;;;;;;;8.10;100.00;102600.53;10543751;28;20302;-63
2023/05/25 04:33:29;;;;;;;;;;;;;;;8.31;100.00;102612.34;10530828;28;19977;-63
2023/05/25 04:38:32;;;;;;;;;;;;;;;8.23;100.00;102619.44;10544695;28;19930;-63
2023/05/25 04:43:34;;;;;;;;;;;;;;;8.41;100.00;102616.50;10537345;28;19924;-64
2023/05/25 04:48:37;;;;;;;;;;;;;;;8.58;100.00;102628.41;10541407;28;19930;-64
2023/05/25 04:53:40;;;;;;;;;;;;;;;8.55;100.00;102630.16;10526255;28;19924;-64
2023/05/25 04:58:42;;;;;;;;;;;;;;;8.90;100.00;102633.81;10525878;28;19924;-64
2023/05/25 05:03:44;;;;;;;;;;;;;;;9.04;100.00;102630.03;10524413;28;19931;-61
2023/05/25 05:08:47;;;;;;;;;;;;;;;9.29;100.00;102638.19;10541708;28;19924;-62
2023/05/25 05:13:49;;;;;;;;;;;;;;;9.48;100.00;102636.00;10541527;28;19924;-63
2023/05/25 05:18:51;;;;;;;;;;;;;;;9.28;100.00;102645.19;10542149;28;20374;-62
2023/05/25 05:23:55;;;;;;;;;;;;;;;9.66;100.00;102639.97;10542835;28;19928;-62
2023/05/25 05:28:57;;;;;;;;;;;;;;;9.71;100.00;102643.31;10502999;28;19931;-63
2023/05/25 05:33:59;;;;;;;;;;;;;;;9.72;100.00;102652.91;10542242;28;19924;-63
2023/05/25 05:39:02;;;;;;;;;;;;;;;9.83;100.00;102660.47;10541560;28;19924;-63
2023/05/25 05:44:04;;;;;;;;;;;;;;;10.10;100.00;102671.16;10538820;28;19928;-63
2023/05/25 05:49:06;;;;;;;;;;;;;;;10.25;100.00;102669.91;10541052;28;19924;-62
2023/05/25 05:54:09;;;;;;;;;;;;;;;10.43;100.00;102669.44;10504101;28;20302;-63
2023/05/25 05:59:11;;;;;;;;;;;;;;;10.24;100.00;102676.91;10541401;28;19924;-62
2023/05/25 06:04:14;;;;;;;;;;;;;;;10.74;100.00;102674.72;10540600;28;20403;-63
2023/05/25 06:09:17;;;;;;;;;;;;;;;10.76;100.00;102688.63;10538261;28;20011;-63
2023/05/25 06:14:19;;;;;;;;;;;;;;;10.94;100.00;102681.13;10506084;28;20314;-63
2023/05/25 06:19:21;;;;;;;;;;;;;;;11.15;100.00;102684.91;10540608;28;19924;-62
2023/05/25 06:24:23;;;;;;;;;;;;;;;11.19;100.00;102698.78;10496041;28;19930;-62
2023/05/25 06:29:26;;;;;;;;;;;;;;;11.51;100.00;102693.38;10503362;28;20022;-62
2023/05/25 06:34:28;;;;;;;;;;;;;;;11.49;100.00;102700.44;10509142;28;19924;-62
2023/05/25 06:39:30;;;;;;;;;;;;;;;11.66;100.00;102693.81;10528878;28;19924;-63
2023/05/25 06:44:32;;;;;;;;;;;;;;;11.87;100.00;102705.41;10539327;28;19963;-63
2023/05/25 06:49:35;;;;;;;;;;;;;;;12.08;100.00;102707.34;10542858;28;19929;-63
2023/05/25 06:54:37;;;;;;;;;;;;;;;12.68;97.76;102703.59;10553951;28;20014;-63
2023/05/25 06:59:39;;;;;;;;;;;;;;;12.26;95.98;102708.50;10545816;28;19969;-63
2023/05/25 07:04:41;;;;;;;;;;;;;;;12.93;95.40;102714.91;10531493;28;19924;-63
2023/05/25 07:09:44;;;;;;;;;;;;;;;12.92;93.39;102718.44;10546655;28;20011;-63
2023/05/25 07:14:47;;;;;;;;;;;;;;;13.76;88.56;102716.16;10550869;28;19932;-63
2023/05/25 07:19:49;;;;;;;;;;;;;;;14.26;83.92;102705.31;10545045;28;19982;-63
2023/05/25 07:24:51;;;;;;;;;;;;;;;14.23;84.27;102705.44;10533561;28;19924;-63
2023/05/25 07:29:54;;;;;;;;;;;;;;;14.99;81.55;102699.50;10536514;28;19935;-64
2023/05/25 07:34:56;;;;;;;;;;;;;;;15.31;78.79;102710.34;10519621;28;20520;-64
2023/05/25 07:39:58;;;;;;;;;;;;;;;15.73;78.63;102720.63;10528322;28;19930;-63
2023/05/25 07:45:00;;;;;;;;;;;;;;;14.98;77.86;102718.91;10533590;28;19931;-63
2023/05/25 07:50:03;;;;;;;;;;;;;;;15.56;78.46;102725.88;10531228;28;20353;-63
2023/05/25 07:55:05;;;;;;;;;;;;;;;16.28;77.18;102730.28;10549152;28;20379;-63
2023/05/25 08:00:08;;;;;;;;;;;;;;;16.60;75.08;102734.84;10508914;28;19931;-63
2023/05/25 08:05:11;;;;;;;;;;;;;;;15.70;76.55;102733.13;10542704;28;19924;-64
2023/05/25 08:10:13;;;;;;;;;;;;;;;16.31;73.77;102742.50;10543752;28;19950;-64
2023/05/25 08:15:16;;;;;;;;;;;;;;;16.32;72.01;102744.19;10542902;28;19972;-63
2023/05/25 08:20:18;;;;;;;;;;;;;;;17.58;69.12;102734.81;10543468;28;19924;-63
2023/05/25 08:25:21;;;;;;;;;;;;;;;17.52;69.14;102734.34;10543193;28;19939;-63
2023/05/25 08:30:23;;;;;;;;;;;;;;;17.04;67.00;102736.94;10541642;28;20063;-63
2023/05/25 08:35:25;;;;;;;;;;;;;;;18.19;67.60;102748.19;10522462;28;20289;-69
2023/05/25 08:40:28;;;;;;;;;;;;;;;18.03;66.61;102755.31;10534943;28;19924;-67
2023/05/25 08:45:30;;;;;;;;;;;;;;;18.71;64.44;102753.00;10521675;28;19977;-68
2023/05/25 08:50:36;;;;;;;;;;;;;;;17.91;67.12;102756.88;10543260;28;19924;-69
2023/05/25 08:55:39;;;;;;;;;;;;;;;17.04;68.98;102760.75;10515908;28;20388;-68
2023/05/25 09:00:41;;;;;;;;;;;;;;;16.68;69.86;102765.25;10497689;28;19924;-68
2023/05/25 09:05:44;;;;;;;;;;;;;;;16.48;70.25;102768.06;10537006;28;19950;-67
2023/05/25 09:10:47;;;;;;;;;;;;;;;16.39;71.03;102771.16;10522695;28;19971;-68
2023/05/25 09:15:49;;;;;;;;;;;;;;;15.77;72.73;102771.56;10541756;28;19924;-68
2023/05/25 09:20:52;;;;;;;;;;;;;;;16.56;71.30;102773.81;10519867;28;19924;-68
2023/05/25 09:25:54;;;;;;;;;;;;;;;16.43;70.21;102770.09;10529304;28;19931;-69
2023/05/25 09:30:56;;;;;;;;;;;;;;;17.22;71.58;102762.41;10517176;28;19930;-68
2023/05/25 09:35:59;;;;;;;;;;;;;;;17.23;69.73;102766.78;10517826;28;20019;-67
2023/05/25 09:41:02;;;;;;;;;;;;;;;16.52;70.80;102770.47;10504332;28;20374;-69
2023/05/25 09:46:04;;;;;;;;;;;;;;;16.11;70.55;102773.41;10505829;28;19931;-69
2023/05/25 09:51:07;;;;;;;;;;;;;;;16.57;69.88;102767.56;10520051;28;19924;-68
2023/05/25 09:56:12;;;;;;;;;;;;;;;17.58;70.99;102771.06;10504005;28;20010;-68
2023/05/25 10:01:15;;;;;;;;;;;;;;;16.99;66.05;102766.28;10508417;28;19928;-68
2023/05/25 10:06:17;;;;;;;;;;;;;;;16.80;68.46;102778.78;10523167;28;19924;-69
2023/05/25 10:11:20;;;;;;;;;;;;;;;17.16;69.90;102764.53;10540219;28;20278;-69
2023/05/25 10:16:24;;;;;;;;;;;;;;;17.99;70.65;102762.59;10539372;28;19924;-68
2023/05/25 10:21:26;;;;;;;;;;;;;;;20.06;63.68;102750.69;10534470;28;20382;-68
2023/05/25 10:26:29;;;;;;;;;;;;;;;21.70;62.09;102757.00;10522528;28;19931;-69
2023/05/25 10:31:32;;;;;;;;;;;;;;;19.08;59.93;102755.19;10522670;28;19924;-70
2023/05/25 10:36:35;;;;;;;;;;;;;;;18.66;60.38;102768.34;10520306;28;19967;-70
2023/05/25 10:41:37;;;;;;;;;;;;;;;18.71;60.64;102765.41;10522513;28;19967;-68
2023/05/25 10:46:40;;;;;;;;;;;;;;;18.17;61.93;102763.31;10520871;28;19924;-67
2023/05/25 10:51:42;;;;;;;;;;;;;;;18.89;60.09;102766.13;10531963;28;19931;-69
2023/05/25 10:57:17;;;;;;;;;;;;;;;18.05;63.83;102756.91;10537151;28;20377;-69
2023/05/25 11:02:22;;;;;;;;;;;;;;;18.29;62.92;102759.94;10506033;28;19924;-69
2023/05/25 11:07:24;;;;;;;;;;;;;;;18.17;60.42;102750.06;10539172;28;20024;-68
2023/05/25 11:12:27;;;;;;;;;;;;;;;17.75;61.86;102759.50;10531176;28;20277;-68
2023/05/25 11:17:31;;;;;;;;;;;;;;;21.22;58.96;102737.41;10538970;28;20382;-68
2023/05/25 11:22:34;;;;;;;;;;;;;;;19.21;55.39;102739.38;10538788;28;19937;-69
2023/05/25 11:27:44;;;;;;;;;;;;;;;19.15;57.51;102747.72;10515636;28;19967;-68
2023/05/25 11:32:47;;;;;;;;;;;;;;;19.91;60.31;102739.28;10521105;28;19946;-68
2023/05/25 11:37:52;;;;;;;;;;;;;;;20.09;57.10;102728.34;10545765;28;20375;-68
2023/05/25 11:42:55;;;;;;;;;;;;;;;18.53;56.61;102732.91;10528709;28;20294;-69
2023/05/25 11:47:57;;;;;;;;;;;;;;;19.64;57.60;102732.13;10526965;28;19924;-69
2023/05/25 11:53:03;;;;;;;;;;;;;;;18.81;57.58;102729.44;10542207;28;20290;-69
2023/05/25 11:58:05;;;;;;;;;;;;;;;18.06;59.11;102731.28;10545697;28;19932;-69
2023/05/25 12:03:09;;;;;;;;;;;;;;;18.25;59.87;102717.78;10546288;28;20015;-69
2023/05/25 12:08:11;;;;;;;;;;;;;;;19.33;57.84;102713.81;10527713;28;19924;-69
2023/05/25 12:13:13;;;;;;;;;;;;;;;18.34;55.43;102711.94;10527011;28;19925;-69
2023/05/25 12:18:16;;;;;;;;;;;;;;;18.03;57.66;102713.75;10545633;28;19928;-69
2023/05/25 12:23:18;;;;;;;;;;;;;;;19.44;58.83;102709.53;10527523;28;19931;-69
2023/05/25 12:28:20;;;;;;;;;;;;;;;19.00;58.14;102699.97;10526650;28;20402;-68
2023/05/25 12:33:22;;;;;;;;;;;;;;;20.14;59.05;102704.97;10544950;28;19924;-68
2023/05/25 12:38:25;;;;;;;;;;;;;;;19.41;55.36;102695.59;10544774;28;19931;-69
2023/05/25 12:43:35;;;;;;;;;;;;;;;21.86;52.73;102697.19;10526321;28;19924;-69
2023/05/25 12:48:37;;;;;;;;;;;;;;;21.48;48.89;102685.75;10544320;28;20028;-69
2023/05/25 12:53:49;;;;;;;;;;;;;;;21.43;49.06;102687.03;10544097;28;20011;-69
2023/05/25 12:58:51;;;;;;;;;;;;;;;20.84;52.99;102687.75;10543339;28;20353;-69
2023/05/25 13:03:53;;;;;;;;;;;;;;;19.86;55.41;102691.72;10543107;28;19947;-69
2023/05/25 13:08:55;;;;;;;;;;;;;;;20.24;55.29;102690.09;10543509;28;20106;-68
2023/05/25 13:13:58;;;;;;;;;;;;;;;20.03;53.82;102684.44;10542680;28;19924;-68
2023/05/25 13:19:00;;;;;;;;;;;;;;;20.01;56.64;102689.84;10543208;28;20015;-69
2023/05/25 13:24:03;;;;;;;;;;;;;;;20.42;52.04;102679.97;10535119;22;19935;-66
2023/05/25 13:29:05;;;;;;;;;;;;;;;19.01;56.38;102687.53;10483150;28;19924;-66
2023/05/25 13:34:07;;;;;;;;;;;;;;;19.16;56.97;102683.06;10500586;28;19978;-66
2023/05/25 13:39:12;;;;;;;;;;;;;;;20.47;54.94;102677.84;10482991;28;20024;-66
2023/05/25 13:44:14;;;;;;;;;;;;;;;20.38;55.61;102667.88;10499665;28;20295;-66
2023/05/25 13:49:18;;;;;;;;;;;;;;;21.91;49.60;102663.03;10500073;28;19925;-66
2023/05/25 13:54:22;;;;;;;;;;;;;;;21.89;47.13;102665.81;10499362;28;19928;-66
2023/05/25 13:59:24;;;;;;;;;;;;;;;22.07;49.69;102663.56;10481155;28;19924;-66
2023/05/25 14:04:26;;;;;;;;;;;;;;;19.98;51.91;102663.47;10481436;28;20295;-66
2023/05/25 14:09:28;;;;;;;;;;;;;;;20.26;54.09;102658.94;10481693;28;19925;-66
2023/05/25 14:14:31;;;;;;;;;;;;;;;20.41;53.57;102667.66;10540074;28;20392;-66
2023/05/25 14:19:34;;;;;;;;;;;;;;;22.09;48.22;102666.09;10522474;28;20001;-66
2023/05/25 14:24:36;;;;;;;;;;;;;;;21.26;50.58;102653.63;10522125;28;19974;-66
2023/05/25 14:29:38;;;;;;;;;;;;;;;22.89;45.97;102643.78;10522666;28;20018;-66
2023/05/25 14:34:41;;;;;;;;;;;;;;;21.43;49.53;102649.72;10522521;28;20009;-66
2023/05/25 14:39:43;;;;;;;;;;;;;;;21.12;52.54;102650.19;10540479;28;19924;-66
2023/05/25 14:44:45;;;;;;;;;;;;;;;20.86;52.37;102656.53;10540347;28;19924;-66
2023/05/25 14:49:47;;;;;;;;;;;;;;;20.40;54.34;102665.94;10522347;28;19924;-66
2023/05/25 14:54:49;;;;;;;;;;;;;;;20.31;51.35;102658.59;10539566;28;20413;-66
2023/05/25 14:59:52;;;;;;;;;;;;;;;21.97;48.12;102657.22;10539485;28;19923;-66
2023/05/25 15:04:54;;;;;;;;;;;;;;;22.02;47.33;102648.84;10539954;28;20014;-66
2023/05/25 15:09:56;;;;;;;;;;;;;;;21.83;47.68;102655.59;10541219;28;19930;-66
2023/05/25 15:14:58;;;;;;;;;;;;;;;21.55;49.41;102654.16;10548097;28;19924;-66
2023/05/25 15:20:01;;;;;;;;;;;;;;;22.27;47.89;102647.78;10513608;28;20027;-66
2023/05/25 15:25:03;;;;;;;;;;;;;;;22.32;46.84;102639.47;10546130;28;19959;-66
2023/05/25 15:30:06;;;;;;;;;;;;;;;23.21;47.42;102645.69;10546433;28;19931;-66
2023/05/25 15:35:08;;;;;;;;;;;;;;;23.18;48.22;102635.25;10547333;28;20018;-66
2023/05/25 15:40:10;;;;;;;;;;;;;;;23.10;47.48;102641.25;10545255;28;19982;-66
2023/05/25 15:45:13;;;;;;;;;;;;;;;20.93;48.04;102640.03;10543805;28;19924;-66
2023/05/25 15:50:15;;;;;;;;;;;;;;;22.41;46.22;102625.41;10545585;28;19986;-67
2023/05/25 15:55:17;;;;;;;;;;;;;;;22.92;45.10;102613.34;10546797;28;20026;-66
2023/05/25 16:00:20;;;;;;;;;;;;;;;22.48;46.18;102612.41;10544649;28;20042;-66
2023/05/25 16:05:22;;;;;;;;;;;;;;;20.91;47.65;102618.00;10527642;28;19924;-66
2023/05/25 16:10:24;;;;;;;;;;;;;;;22.21;47.08;102618.94;10524948;28;19924;-66
2023/05/25 16:15:26;;;;;;;;;;;;;;;20.28;48.17;102618.94;10543907;28;20359;-66
2023/05/25 16:20:29;;;;;;;;;;;;;;;21.98;47.83;102626.06;10543813;28;20394;-67
2023/05/25 16:25:31;;;;;;;;;;;;;;;21.50;47.25;102624.34;10526783;28;19935;-66
2023/05/25 16:30:33;;;;;;;;;;;;;;;21.69;47.87;102629.16;10544632;28;20014;-66
2023/05/25 16:35:36;;;;;;;;;;;;;;;20.93;48.77;102616.06;10544360;28;20371;-66
2023/05/25 16:40:38;;;;;;;;;;;;;;;21.28;48.45;102617.06;10544959;28;19924;-66
2023/05/25 16:45:40;;;;;;;;;;;;;;;20.74;48.17;102616.53;10544884;28;19938;-67
2023/05/25 16:50:42;;;;;;;;;;;;;;;19.57;49.73;102621.91;10525838;28;19924;-66
2023/05/25 16:55:45;;;;;;;;;;;;;;;19.99;49.72;102616.50;10543661;28;20287;-66
2023/05/25 17:00:47;;;;;;;;;;;;;;;20.45;48.80;102615.09;10525376;28;20366;-66
2023/05/25 17:05:49;;;;;;;;;;;;;;;19.58;51.79;102620.94;10525604;28;20023;-66
2023/05/25 17:10:54;;;;;;;;;;;;;;;19.13;50.74;102609.75;10543488;28;19930;-66
2023/05/25 17:15:56;;;;;;;;;;;;;;;19.79;52.93;102610.72;10543353;28;19939;-67
2023/05/25 17:21:00;;;;;;;;;;;;;;;19.95;51.28;102604.34;10541899;28;20147;-66
2023/05/25 17:26:03;;;;;;;;;;;;;;;19.49;51.21;102613.59;10522198;28;19935;-66
2023/05/25 17:31:05;;;;;;;;;;;;;;;19.12;51.51;102616.03;10540850;28;20035;-66
2023/05/25 17:36:10;;;;;;;;;;;;;;;18.74;54.08;102620.16;10522759;28;19924;-66
2023/05/25 17:41:12;;;;;;;;;;;;;;;18.97;52.18;102623.19;10540352;28;19924;-66
2023/05/25 17:46:14;;;;;;;;;;;;;;;18.63;52.18;102621.78;10541064;28;19924;-66
2023/05/25 17:51:17;;;;;;;;;;;;;;;18.54;53.14;102612.59;10538433;28;20378;-66
2023/05/25 17:56:20;;;;;;;;;;;;;;;18.07;54.52;102616.38;10539594;28;19955;-66
2023/05/25 18:01:22;;;;;;;;;;;;;;;18.04;55.75;102620.06;10541550;28;19930;-66
2023/05/25 18:06:24;;;;;;;;;;;;;;;18.45;55.33;102621.13;10540359;28;19924;-66
2023/05/25 18:11:32;;;;;;;;;;;;;;;18.19;56.40;102623.59;10536044;28;19978;-66
2023/05/25 18:16:38;;;;;;;;;;;;;;;17.53;56.16;102627.47;10540430;28;19977;-66
2023/05/25 18:21:41;;;;;;;;;;;;;;;17.24;57.73;102633.47;10521220;28;20015;-66
2023/05/25 18:26:45;;;;;;;;;;;;;;;17.40;57.82;102628.16;10537955;28;19930;-66
2023/05/25 18:31:47;;;;;;;;;;;;;;;16.94;57.75;102633.41;10535379;28;19932;-66
2023/05/25 18:36:50;;;;;;;;;;;;;;;17.11;58.46;102640.41;10536850;28;19924;-66
2023/05/25 18:41:52;;;;;;;;;;;;;;;16.84;59.38;102645.38;10499325;28;19924;-66
2023/05/25 18:46:55;;;;;;;;;;;;;;;16.38;60.00;102646.06;10539060;28;20018;-66
2023/05/25 18:51:58;;;;;;;;;;;;;;;16.58;61.01;102647.66;10540170;28;19975;-66
2023/05/25 18:57:01;;;;;;;;;;;;;;;16.38;60.29;102650.50;10538382;28;20390;-66
2023/05/25 19:02:04;;;;;;;;;;;;;;;16.27;61.67;102645.78;10540035;28;19960;-66
2023/05/25 19:07:06;;;;;;;;;;;;;;;15.94;62.88;102655.38;10539840;28;19924;-66
2023/05/25 19:12:08;;;;;;;;;;;;;;;15.79;63.79;102667.56;10538686;28;19924;-66
2023/05/25 19:17:10;;;;;;;;;;;;;;;15.87;63.06;102671.59;10538146;28;19964;-66
2023/05/25 19:22:13;;;;;;;;;;;;;;;15.30;63.77;102671.69;10539528;28;19924;-65
2023/05/25 19:27:15;;;;;;;;;;;;;;;15.00;64.11;102678.34;10536700;28;19924;-66
2023/05/25 19:32:17;;;;;;;;;;;;;;;14.96;64.27;102694.38;10538524;28;20391;-66
2023/05/25 19:37:19;;;;;;;;;;;;;;;14.82;64.64;102693.22;10538250;28;19924;-66
2023/05/25 19:42:22;;;;;;;;;;;;;;;14.77;65.60;102697.00;10521034;28;19928;-66
2023/05/25 19:47:24;;;;;;;;;;;;;;;14.88;65.04;102701.78;10539242;28;19931;-65
2023/05/25 19:52:26;;;;;;;;;;;;;;;14.36;66.19;102720.72;10537871;28;19928;-66
2023/05/25 19:57:29;;;;;;;;;;;;;;;14.33;67.69;102720.84;10545662;28;20375;-66
2023/05/25 20:02:31;;;;;;;;;;;;;;;14.46;67.43;102724.69;10523751;28;20286;-66
2023/05/25 20:07:33;;;;;;;;;;;;;;;13.81;67.36;102734.41;10544997;28;19931;-66
2023/05/25 20:12:36;;;;;;;;;;;;;;;13.94;66.70;102738.25;10545671;28;19924;-66
2023/05/25 20:17:38;;;;;;;;;;;;;;;13.88;67.35;102735.88;10543082;28;20295;-65
2023/05/25 20:22:40;;;;;;;;;;;;;;;13.51;67.40;102738.16;10544506;28;20333;-65
2023/05/25 20:27:42;;;;;;;;;;;;;;;13.37;68.34;102745.75;10545331;28;19924;-66
2023/05/25 20:32:45;;;;;;;;;;;;;;;13.57;67.88;102739.72;10543317;28;19964;-67
2023/05/25 20:37:47;;;;;;;;;;;;;;;13.67;67.82;102746.34;10545044;28;19970;-66
2023/05/25 20:42:49;;;;;;;;;;;;;;;13.42;68.63;102746.44;10544042;28;19924;-66
2023/05/25 20:47:59;;;;;;;;;;;;;;;12.99;69.57;102753.25;10540419;28;20363;-65
2023/05/25 20:53:01;;;;;;;;;;;;;;;12.81;70.20;102760.91;10533700;28;19974;-66
2023/05/25 20:58:04;;;;;;;;;;;;;;;12.69;70.62;102766.56;10525487;28;20392;-65
2023/05/25 21:03:07;;;;;;;;;;;;;;;12.79;69.55;102770.63;10540635;28;20022;-65
2023/05/25 21:08:10;;;;;;;;;;;;;;;12.69;70.55;102781.50;10540099;28;19986;-66
2023/05/25 21:13:12;;;;;;;;;;;;;;;12.46;70.75;102783.16;10540509;28;20295;-65
2023/05/25 21:18:14;;;;;;;;;;;;;;;12.47;70.59;102792.72;10519469;28;19947;-66
2023/05/25 21:23:16;;;;;;;;;;;;;;;12.48;70.79;102796.25;10524796;28;20023;-66
2023/05/25 21:28:19;;;;;;;;;;;;;;;12.33;71.48;102802.84;10541307;28;20398;-65
2023/05/25 21:33:21;;;;;;;;;;;;;;;12.54;71.62;102810.03;10541002;28;19928;-66
2023/05/25 21:38:23;;;;;;;;;;;;;;;12.05;72.66;102815.13;10541834;28;19924;-65
2023/05/25 21:43:26;;;;;;;;;;;;;;;12.35;72.41;102811.53;10540737;28;20375;-66
2023/05/25 21:48:28;;;;;;;;;;;;;;;12.04;72.65;102817.78;10541055;28;19989;-65
2023/05/25 21:53:30;;;;;;;;;;;;;;;11.87;73.34;102813.88;10523281;28;19924;-65
2023/05/25 21:58:32;;;;;;;;;;;;;;;11.79;73.99;102820.28;10541087;28;19930;-65
2023/05/25 22:03:35;;;;;;;;;;;;;;;11.69;74.00;102822.31;10539865;28;20312;-65
2023/05/25 22:08:37;;;;;;;;;;;;;;;11.66;74.71;102825.00;10541399;28;19924;-66
2023/05/25 22:13:40;;;;;;;;;;;;;;;11.63;75.31;102823.34;10539370;28;20286;-66
2023/05/25 22:18:42;;;;;;;;;;;;;;;11.47;76.22;102816.84;10539407;28;19928;-66
2023/05/25 22:23:44;;;;;;;;;;;;;;;11.34;77.04;102826.81;10539615;28;19998;-65
2023/05/25 22:28:46;;;;;;;;;;;;;;;11.23;77.25;102823.63;10540089;28;20401;-66
2023/05/25 22:33:49;;;;;;;;;;;;;;;11.05;77.68;102825.00;10522150;28;20294;-66
2023/05/25 22:38:51;;;;;;;;;;;;;;;11.44;77.68;102833.50;10525396;28;19924;-66
2023/05/25 22:43:53;;;;;;;;;;;;;;;11.27;78.19;102833.97;10522361;28;19923;-66
2023/05/25 22:48:55;;;;;;;;;;;;;;;11.01;79.05;102836.44;10538726;28;19924;-66
2023/05/25 22:53:57;;;;;;;;;;;;;;;11.11;79.95;102843.16;10536307;28;20267;-66
2023/05/25 22:59:00;;;;;;;;;;;;;;;11.10;79.80;102846.72;10521634;28;20296;-65
2023/05/25 23:04:02;;;;;;;;;;;;;;;10.83;81.37;102848.31;10505605;28;19928;-65
2023/05/25 23:09:04;;;;;;;;;;;;;;;10.71;82.66;102852.09;10538746;28;19978;-66
2023/05/25 23:14:07;;;;;;;;;;;;;;;10.98;81.38;102847.91;10519828;28;19924;-66
2023/05/25 23:19:09;;;;;;;;;;;;;;;10.86;81.73;102843.84;10539664;28;20011;-66
2023/05/25 23:24:11;;;;;;;;;;;;;;;10.86;81.68;102840.31;10539054;28;19940;-66
2023/05/25 23:29:13;;;;;;;;;;;;;;;11.07;81.40;102836.28;10540960;28;19925;-65
2023/05/25 23:34:16;;;;;;;;;;;;;;;10.85;81.64;102842.09;10545695;28;19924;-66
2023/05/25 23:39:19;;;;;;;;;;;;;;;10.30;85.60;102838.19;10546198;28;19971;-66
2023/05/25 23:44:21;;;;;;;;;;;;;;;10.28;85.24;102837.38;10538122;28;19930;-66
2023/05/25 23:49:23;;;;;;;;;;;;;;;10.64;85.89;102842.66;10545484;28;19950;-66
2023/05/25 23:54:25;;;;;;;;;;;;;;;10.09;87.85;102839.56;10546719;28;20027;-66
2023/05/25 23:59:27;;;;;;;;;;;;;;;10.24;89.20;102841.84;10546398;28;19930;-66
